Time;durP1;ratioP1;P1;durP2;ratioP2;P2;SDS_P1;SDS_P2;PMS_P1;PMS_P2;Temp;Humidity;BMP_temperature;BMP_pressure;BME280_temperature;BME280_humidity;BME280_pressure;Samples;Min_cycle;Max_cycle;Signal;HPM_P1;HPM_P2
2021/10/25 00:00:57;;;;;;;1.52;0.88;;;16.50;52.60;;;;;;20798363;28;20048;-81
2021/10/25 00:10:58;;;;;;;2.75;1.27;;;16.50;52.60;;;;;;20764203;28;20091;-81
2021/10/25 00:20:59;;;;;;;1.87;0.93;;;16.40;52.40;;;;;;20796202;28;20356;-80
2021/10/25 00:30:59;;;;;;;1.60;0.80;;;16.40;52.40;;;;;;20780356;28;20662;-81
2021/10/25 00:41:00;;;;;;;1.55;0.70;;;16.40;52.30;;;;;;20762480;28;20357;-82
2021/10/25 00:51:02;;;;;;;2.17;0.90;;;16.40;52.20;;;;;;20794142;28;20116;-81
2021/10/25 01:01:03;;;;;;;3.42;0.90;;;16.40;52.10;;;;;;20761145;28;20187;-82
2021/10/25 01:11:04;;;;;;;2.33;1.00;;;16.40;52.00;;;;;;20760372;28;20561;-80
2021/10/25 01:21:04;;;;;;;1.88;0.80;;;16.40;52.00;;;;;;20775171;28;20448;-81
2021/10/25 01:31:06;;;;;;;2.03;0.88;;;16.40;51.90;;;;;;20791804;28;20063;-82
2021/10/25 01:41:07;;;;;;;1.15;0.80;;;16.40;51.80;;;;;;20775309;28;20037;-81
2021/10/25 01:51:09;;;;;;;1.67;0.90;;;16.40;51.70;;;;;;20758312;28;20489;-81
2021/10/25 02:01:14;;;;;;;1.73;0.93;;;16.40;51.70;;;;;;20774147;28;20068;-82
2021/10/25 02:11:15;;;;;;;1.83;1.07;;;16.40;51.60;;;;;;20757464;28;20038;-81
2021/10/25 02:21:20;;;;;;;1.73;0.90;;;16.40;51.50;;;;;;20774628;28;20043;-81
2021/10/25 02:31:21;;;;;;;2.17;1.17;;;16.30;51.40;;;;;;20797767;28;20112;-82
2021/10/25 02:41:21;;;;;;;1.73;0.93;;;16.30;51.40;;;;;;20772012;28;20284;-78
2021/10/25 02:51:22;;;;;;;3.15;0.98;;;16.30;51.30;;;;;;20771110;28;20314;-79
2021/10/25 03:01:27;;;;;;;1.48;0.88;;;16.30;51.20;;;;;;20787392;28;20029;-81
2021/10/25 03:11:34;;;;;;;2.88;1.20;;;16.30;51.20;;;;;;20772014;28;20040;-79
2021/10/25 03:21:35;;;;;;;1.90;0.85;;;16.30;51.10;;;;;;20786314;28;20040;-79
2021/10/25 03:31:38;;;;;;;1.20;0.80;;;16.30;51.10;;;;;;20801505;28;20034;-80
2021/10/25 03:41:43;;;;;;;0.73;0.70;;;16.30;51.00;;;;;;20766601;28;20045;-78
2021/10/25 03:51:44;;;;;;;2.05;0.98;;;16.80;50.00;;;;;;20782900;28;20037;-80
2021/10/25 04:02:15;;;;;;;1.40;0.90;;;17.90;47.90;;;;;;20798324;28;20033;-82
2021/10/25 04:32:54;;;;;;;1.45;0.82;;;19.70;43.70;;;;;;20787649;28;20037;-79
2021/10/25 04:43:13;;;;;;;1.70;1.00;;;19.30;44.00;;;;;;20788803;28;20470;-81
2021/10/25 04:53:15;;;;;;;1.00;0.70;;;18.30;45.30;;;;;;20782090;28;20037;-81
2021/10/25 05:03:17;;;;;;;1.25;0.82;;;17.60;46.70;;;;;;20796644;28;20132;-79
2021/10/25 05:13:18;;;;;;;1.70;0.88;;;17.00;47.70;;;;;;20779908;28;20044;-79
2021/10/25 05:23:18;;;;;;;1.48;0.75;;;16.60;48.60;;;;;;20791845;28;20406;-80
2021/10/25 05:33:20;;;;;;;1.37;0.90;;;16.30;49.20;;;;;;20776191;28;20552;-80
2021/10/25 05:43:21;;;;;;;1.08;0.73;;;16.30;49.50;;;;;;20775982;28;20334;-79
2021/10/25 05:53:23;;;;;;;1.42;0.93;;;16.20;49.60;;;;;;20791269;28;20026;-81
2021/10/25 06:03:26;;;;;;;1.60;0.88;;;16.30;49.60;;;;;;20796093;28;20120;-79
2021/10/25 06:13:36;;;;;;;1.30;0.85;;;16.40;49.40;;;;;;20826024;28;20037;-80
2021/10/25 06:23:43;;;;;;;2.22;1.05;;;16.50;49.40;;;;;;20808552;28;20044;-82
2021/10/25 06:34:08;;;;;;;1.63;0.80;;;16.50;49.20;;;;;;20830797;28;20037;-80
2021/10/25 06:44:28;;;;;;;2.00;0.98;;;16.50;49.10;;;;;;20812862;28;20120;-81
2021/10/25 06:54:46;;;;;;;0.70;0.68;;;16.50;49.00;;;;;;20802046;28;20037;-80
2021/10/25 07:04:48;;;;;;;2.15;1.05;;;16.60;49.00;;;;;;20798884;28;20083;-81
2021/10/25 07:14:53;;;;;;;2.72;1.13;;;16.50;49.00;;;;;;20812710;28;20037;-80
2021/10/25 08:06:41;;;;;;;2.63;1.20;;;16.50;49.60;;;;;;20801091;28;20037;-79
2021/10/25 08:16:49;;;;;;;3.13;1.33;;;16.60;49.80;;;;;;20786410;28;20040;-80
2021/10/25 08:26:50;;;;;;;1.17;0.95;;;16.60;49.90;;;;;;20766522;28;20025;-81
2021/10/25 08:47:19;;;;;;;0.82;0.63;;;16.60;50.10;;;;;;20766708;28;20137;-80
2021/10/25 08:57:21;;;;;;;1.73;0.80;;;16.60;50.20;;;;;;20779098;28;20544;-80
2021/10/25 09:07:21;;;;;;;2.92;1.05;;;16.60;50.40;;;;;;20760646;28;20091;-79
2021/10/25 09:17:22;;;;;;;1.85;0.90;;;16.60;50.40;;;;;;20775538;28;20033;-79
2021/10/25 09:27:46;;;;;;;2.53;1.20;;;16.60;50.50;;;;;;20809547;28;20053;-79
2021/10/25 09:38:06;;;;;;;1.35;0.90;;;16.60;50.70;;;;;;20776995;28;20052;-81
2021/10/25 09:58:42;;;;;;;2.20;1.20;;;16.60;50.80;;;;;;20779662;28;20057;-80
2021/10/25 10:08:44;;;;;;;2.92;1.30;;;16.60;51.00;;;;;;20775622;28;20060;-81
2021/10/25 10:18:55;;;;;;;1.57;1.13;;;16.50;51.20;;;;;;20758778;28;20055;-79
2021/10/25 10:29:12;;;;;;;1.90;1.00;;;16.60;51.20;;;;;;20776129;28;20072;-80
2021/10/25 10:39:27;;;;;;;1.83;1.05;;;16.50;51.30;;;;;;20789792;28;20030;-78
2021/10/25 10:49:42;;;;;;;1.00;0.77;;;16.50;51.40;;;;;;21163124;22;20050;-81
2021/10/25 10:59:50;;;;;;;4.05;1.00;;;16.50;51.50;;;;;;20806465;28;20099;-81
2021/10/25 11:09:51;;;;;;;2.25;1.05;;;16.60;51.50;;;;;;20806121;28;20376;-82
2021/10/25 11:19:52;;;;;;;2.80;1.00;;;16.60;51.50;;;;;;20787645;28;20045;-81
2021/10/25 11:30:05;;;;;;;2.63;1.27;;;16.60;51.50;;;;;;20803871;28;20041;-82
2021/10/25 11:40:08;;;;;;;2.15;0.93;;;16.70;51.60;;;;;;20819412;28;20071;-83
2021/10/25 11:50:14;;;;;;;1.48;0.80;;;16.70;51.50;;;;;;20787281;28;20510;-81
2021/10/25 12:00:24;;;;;;;1.58;0.82;;;16.70;51.50;;;;;;20785573;28;20038;-83
2021/10/25 12:10:33;;;;;;;3.00;1.20;;;16.70;51.50;;;;;;20772848;28;20041;-82
2021/10/25 12:20:38;;;;;;;1.00;0.52;;;16.80;51.60;;;;;;20800017;28;20033;-81
2021/10/25 12:30:38;;;;;;;1.42;0.80;;;16.80;51.50;;;;;;20766859;28;20076;-82
2021/10/25 12:40:49;;;;;;;0.83;0.53;;;16.90;51.60;;;;;;20766307;28;20030;-81
2021/10/25 12:50:50;;;;;;;0.85;0.60;;;17.00;51.40;;;;;;20798414;28;20331;-82
2021/10/25 13:00:53;;;;;;;1.38;0.68;;;17.00;51.30;;;;;;20780364;28;20029;-82
2021/10/25 13:10:53;;;;;;;0.93;0.57;;;17.10;51.20;;;;;;20779421;28;20046;-82
2021/10/25 13:20:54;;;;;;;3.75;0.88;;;17.10;51.10;;;;;;20762936;28;20033;-82
2021/10/25 13:30:55;;;;;;;1.00;0.60;;;17.10;51.20;;;;;;20762557;28;20048;-82
2021/10/25 13:40:56;;;;;;;1.05;0.82;;;17.10;51.30;;;;;;20810464;28;20035;-82
2021/10/25 13:50:56;;;;;;;1.03;0.60;;;17.10;51.40;;;;;;20777427;28;20095;-81
2021/10/25 14:00:57;;;;;;;1.38;0.75;;;17.10;51.50;;;;;;20793303;28;20093;-82
2021/10/25 14:10:58;;;;;;;1.38;0.70;;;17.00;51.50;;;;;;20776766;28;20037;-83
2021/10/25 14:20:58;;;;;;;0.80;0.60;;;17.00;51.60;;;;;;20777248;28;20059;-80
2021/10/25 14:30:59;;;;;;;0.80;0.70;;;16.90;51.60;;;;;;20775143;28;20069;-81
2021/10/25 14:41:07;;;;;;;1.88;0.80;;;17.00;51.80;;;;;;20791246;28;20055;-81
2021/10/25 15:01:27;;;;;;;1.23;0.68;;;16.90;51.90;;;;;;20795131;28;20124;-82
2021/10/25 15:11:28;;;;;;;0.57;0.57;;;16.90;52.10;;;;;;20805159;28;20060;-82
2021/10/25 15:21:29;;;;;;;1.23;0.70;;;16.80;52.20;;;;;;20820686;28;20029;-82
2021/10/25 15:31:30;;;;;;;0.90;0.60;;;16.80;52.30;;;;;;20803590;28;20041;-83
2021/10/25 15:41:30;;;;;;;1.88;0.80;;;16.80;52.40;;;;;;20769876;28;20025;-81
2021/10/25 15:51:31;;;;;;;1.40;0.55;;;16.70;52.50;;;;;;20786389;28;20038;-82
2021/10/25 16:01:31;;;;;;;1.60;0.95;;;16.80;52.70;;;;;;20801616;28;20061;-83
2021/10/25 16:11:32;;;;;;;1.50;0.82;;;16.70;52.60;;;;;;20785046;28;20071;-82
2021/10/25 16:21:33;;;;;;;0.95;0.65;;;16.70;53.40;;;;;;20783813;28;20025;-83
2021/10/25 16:31:34;;;;;;;1.45;0.50;;;16.70;52.80;;;;;;20798979;28;20033;-79
2021/10/25 16:41:35;;;;;;;1.40;0.70;;;16.70;52.80;;;;;;20765358;28;20419;-79
2021/10/25 16:51:41;;;;;;;1.33;0.70;;;16.70;52.80;;;;;;20780563;28;20132;-82
2021/10/25 17:12:00;;;;;;;1.92;0.80;;;16.70;52.80;;;;;;20800287;28;20048;-81
2021/10/25 17:22:03;;;;;;;1.38;0.70;;;16.70;52.90;;;;;;20777720;28;20029;-81
2021/10/25 17:32:04;;;;;;;1.73;0.80;;;16.70;52.80;;;;;;20778323;28;20139;-80
2021/10/25 17:42:06;;;;;;;0.75;0.63;;;16.70;52.90;;;;;;20777419;28;20063;-80
2021/10/25 17:52:07;;;;;;;4.28;1.02;;;16.70;52.90;;;;;;20777344;28;20042;-81
2021/10/25 18:02:09;;;;;;;1.23;0.70;;;16.70;52.90;;;;;;20792233;28;20079;-82
2021/10/25 18:12:09;;;;;;;1.23;1.00;;;16.70;52.90;;;;;;20787888;28;20288;-82
2021/10/25 18:22:10;;;;;;;2.33;0.98;;;16.70;52.90;;;;;;20803625;28;20360;-82
2021/10/25 18:32:15;;;;;;;0.90;0.60;;;16.60;52.80;;;;;;20803370;28;20041;-82
2021/10/25 18:42:18;;;;;;;0.88;0.70;;;16.70;52.90;;;;;;20802657;28;20268;-81
2021/10/25 18:52:19;;;;;;;2.35;0.77;;;16.70;52.90;;;;;;20802529;28;20052;-80
2021/10/25 19:02:19;;;;;;;1.45;0.75;;;16.70;52.90;;;;;;20785734;28;20033;-83
2021/10/25 19:12:20;;;;;;;1.67;0.75;;;16.60;52.90;;;;;;20794114;28;20509;-81
2021/10/25 19:22:22;;;;;;;3.70;1.00;;;16.60;52.90;;;;;;20772250;28;20054;-81
2021/10/25 19:32:25;;;;;;;1.95;0.95;;;16.60;52.90;;;;;;20787492;28;20026;-81
2021/10/25 19:42:26;;;;;;;1.75;0.90;;;16.60;53.00;;;;;;20802580;28;20068;-81
2021/10/25 19:52:27;;;;;;;2.80;1.03;;;16.60;53.00;;;;;;20769086;28;20033;-81
2021/10/25 20:02:27;;;;;;;4.75;1.88;;;16.60;53.00;;;;;;20784586;28;20292;-82
2021/10/25 20:12:28;;;;;;;2.75;1.27;;;16.60;53.00;;;;;;20800692;28;20507;-82
2021/10/25 20:22:28;;;;;;;2.15;1.02;;;16.60;53.10;;;;;;20766971;28;20111;-81
2021/10/25 20:32:29;;;;;;;3.57;1.33;;;16.60;53.20;;;;;;20798147;28;20040;-80
2021/10/25 20:42:30;;;;;;;3.92;1.30;;;16.60;53.30;;;;;;20797740;28;20390;-82
2021/10/25 20:52:30;;;;;;;2.03;1.25;;;16.60;53.40;;;;;;20764474;28;20036;-82
2021/10/25 21:02:31;;;;;;;1.67;1.25;;;16.50;53.40;;;;;;20764053;28;20052;-80
2021/10/25 21:12:32;;;;;;;5.18;1.13;;;16.60;53.50;;;;;;20796216;28;20041;-81
2021/10/25 21:22:32;;;;;;;1.55;1.20;;;16.50;53.50;;;;;;20795831;28;20442;-81
2021/10/25 21:32:33;;;;;;;1.80;1.00;;;16.50;53.60;;;;;;20794050;28;20050;-81
2021/10/25 21:42:34;;;;;;;1.40;0.95;;;16.50;53.70;;;;;;20777617;28;20476;-80
2021/10/25 21:52:34;;;;;;;2.22;1.23;;;16.50;53.80;;;;;;20792828;28;20041;-81
2021/10/25 22:02:36;;;;;;;1.38;1.00;;;16.50;53.90;;;;;;20809367;28;20053;-80
2021/10/25 22:12:39;;;;;;;1.85;1.10;;;16.50;53.90;;;;;;20776667;28;20038;-81
2021/10/25 22:22:39;;;;;;;5.07;1.38;;;16.50;54.00;;;;;;20761301;28;20037;-81
2021/10/25 22:32:40;;;;;;;1.40;1.17;;;16.50;54.20;;;;;;20775546;28;20441;-81
2021/10/25 22:42:41;;;;;;;2.03;1.17;;;16.50;54.90;;;;;;20791663;28;20029;-82
2021/10/25 22:52:42;;;;;;;2.30;1.27;;;16.50;54.30;;;;;;20774330;28;20036;-82
2021/10/25 23:02:42;;;;;;;1.40;1.23;;;16.50;54.40;;;;;;20805271;28;20468;-80
2021/10/25 23:12:43;;;;;;;2.80;1.20;;;16.40;54.40;;;;;;20788795;28;20033;-81
2021/10/25 23:22:43;;;;;;;1.98;1.40;;;16.40;54.50;;;;;;20805497;28;20385;-82
2021/10/25 23:32:44;;;;;;;1.67;1.10;;;16.40;54.60;;;;;;20788363;28;20041;-80
2021/10/25 23:42:45;;;;;;;1.45;1.00;;;16.40;54.60;;;;;;20803129;28;20033;-81
2021/10/25 23:52:45;;;;;;;2.28;1.10;;;16.40;54.70;;;;;;20818108;28;20121;-81
